sensor_id;sensor_type;location;lat;lon;timestamp;temperature;humidity
41435;DHT22;27177;22.262;114.192;2023-04-06T00:03:06;23.20;99.90
41435;DHT22;27177;22.262;114.192;2023-04-06T00:05:33;23.30;99.90
41435;DHT22;27177;22.262;114.192;2023-04-06T00:10:44;23.30;99.90
41435;DHT22;27177;22.262;114.192;2023-04-06T00:26:08;23.40;99.90
41435;DHT22;27177;22.262;114.192;2023-04-06T00:34:35;23.40;99.90
41435;DHT22;27177;22.262;114.192;2023-04-06T00:37:02;23.40;99.90
41435;DHT22;27177;22.262;114.192;2023-04-06T00:39:33;23.40;99.90
41435;DHT22;27177;22.262;114.192;2023-04-06T00:42:10;23.40;99.90
41435;DHT22;27177;22.262;114.192;2023-04-06T00:44:42;23.40;99.90
41435;DHT22;27177;22.262;114.192;2023-04-06T00:47:10;23.40;99.90
41435;DHT22;27177;22.262;114.192;2023-04-06T00:49:37;23.40;99.90
41435;DHT22;27177;22.262;114.192;2023-04-06T00:52:03;23.40;99.90
41435;DHT22;27177;22.262;114.192;2023-04-06T00:54:30;23.50;99.90
41435;DHT22;27177;22.262;114.192;2023-04-06T00:56:56;23.60;99.90
41435;DHT22;27177;22.262;114.192;2023-04-06T00:59:23;23.60;99.90
41435;DHT22;27177;22.262;114.192;2023-04-06T01:01:49;23.60;99.90
41435;DHT22;27177;22.262;114.192;2023-04-06T01:04:17;23.60;99.90
41435;DHT22;27177;22.262;114.192;2023-04-06T01:06:44;23.70;99.90
41435;DHT22;27177;22.262;114.192;2023-04-06T01:09:11;23.70;99.90
41435;DHT22;27177;22.262;114.192;2023-04-06T01:14:09;23.80;99.90
41435;DHT22;27177;22.262;114.192;2023-04-06T01:16:35;23.80;99.90
41435;DHT22;27177;22.262;114.192;2023-04-06T01:19:11;23.80;99.90
41435;DHT22;27177;22.262;114.192;2023-04-06T01:21:40;23.90;99.90
41435;DHT22;27177;22.262;114.192;2023-04-06T01:24:07;23.90;99.90
41435;DHT22;27177;22.262;114.192;2023-04-06T01:26:33;23.90;99.90
41435;DHT22;27177;22.262;114.192;2023-04-06T01:29:00;23.90;99.90
41435;DHT22;27177;22.262;114.192;2023-04-06T01:31:27;23.90;99.90
41435;DHT22;27177;22.262;114.192;2023-04-06T01:33:53;23.90;99.90
41435;DHT22;27177;22.262;114.192;2023-04-06T01:36:20;23.90;99.90
41435;DHT22;27177;22.262;114.192;2023-04-06T01:38:47;23.90;99.90
41435;DHT22;27177;22.262;114.192;2023-04-06T01:41:13;23.80;99.90
41435;DHT22;27177;22.262;114.192;2023-04-06T01:43:39;23.90;99.90
41435;DHT22;27177;22.262;114.192;2023-04-06T01:46:06;23.80;99.90
41435;DHT22;27177;22.262;114.192;2023-04-06T01:48:32;23.80;99.90
41435;DHT22;27177;22.262;114.192;2023-04-06T01:51:01;23.80;99.90
41435;DHT22;27177;22.262;114.192;2023-04-06T01:53:31;23.80;99.90
41435;DHT22;27177;22.262;114.192;2023-04-06T01:55:57;23.80;99.90
41435;DHT22;27177;22.262;114.192;2023-04-06T01:58:23;23.80;99.90
41435;DHT22;27177;22.262;114.192;2023-04-06T02:00:51;23.90;99.90
41435;DHT22;27177;22.262;114.192;2023-04-06T02:03:17;23.90;99.90
41435;DHT22;27177;22.262;114.192;2023-04-06T02:05:44;23.90;99.90
41435;DHT22;27177;22.262;114.192;2023-04-06T02:08:11;23.90;99.90
41435;DHT22;27177;22.262;114.192;2023-04-06T02:10:38;23.90;99.90
41435;DHT22;27177;22.262;114.192;2023-04-06T02:13:12;23.90;99.90
41435;DHT22;27177;22.262;114.192;2023-04-06T02:15:38;23.90;99.90
41435;DHT22;27177;22.262;114.192;2023-04-06T02:18:04;23.90;99.90
41435;DHT22;27177;22.262;114.192;2023-04-06T02:20:31;23.90;99.90
41435;DHT22;27177;22.262;114.192;2023-04-06T02:22:58;23.90;99.90
41435;DHT22;27177;22.262;114.192;2023-04-06T02:25:25;23.90;99.90
41435;DHT22;27177;22.262;114.192;2023-04-06T02:27:52;23.90;99.90
41435;DHT22;27177;22.262;114.192;2023-04-06T02:30:18;23.90;99.90
41435;DHT22;27177;22.262;114.192;2023-04-06T02:32:44;23.90;99.90
41435;DHT22;27177;22.262;114.192;2023-04-06T02:35:10;23.90;99.90
41435;DHT22;27177;22.262;114.192;2023-04-06T02:37:37;23.90;99.90
41435;DHT22;27177;22.262;114.192;2023-04-06T02:40:03;23.90;99.90
41435;DHT22;27177;22.262;114.192;2023-04-06T02:45:02;23.90;99.90
41435;DHT22;27177;22.262;114.192;2023-04-06T02:47:28;23.90;99.90
41435;DHT22;27177;22.262;114.192;2023-04-06T02:49:54;23.90;99.90
41435;DHT22;27177;22.262;114.192;2023-04-06T02:52:21;23.90;99.90
41435;DHT22;27177;22.262;114.192;2023-04-06T02:54:47;23.90;99.90
41435;DHT22;27177;22.262;114.192;2023-04-06T02:59:42;24.00;99.90
41435;DHT22;27177;22.262;114.192;2023-04-06T03:02:09;24.10;99.90
41435;DHT22;27177;22.262;114.192;2023-04-06T03:04:35;24.10;99.90
41435;DHT22;27177;22.262;114.192;2023-04-06T03:07:04;24.10;99.90
41435;DHT22;27177;22.262;114.192;2023-04-06T03:09:30;24.10;99.90
41435;DHT22;27177;22.262;114.192;2023-04-06T03:11:56;24.10;99.90
41435;DHT22;27177;22.262;114.192;2023-04-06T03:19:45;24.00;99.90
41435;DHT22;27177;22.262;114.192;2023-04-06T03:27:46;24.00;99.90
41435;DHT22;27177;22.262;114.192;2023-04-06T03:30:13;24.00;99.90
41435;DHT22;27177;22.262;114.192;2023-04-06T03:32:39;24.00;99.90
41435;DHT22;27177;22.262;114.192;2023-04-06T03:35:08;24.00;99.90
41435;DHT22;27177;22.262;114.192;2023-04-06T03:45:20;24.10;99.90
41435;DHT22;27177;22.262;114.192;2023-04-06T03:50:18;24.10;99.90
41435;DHT22;27177;22.262;114.192;2023-04-06T04:09:07;24.10;99.90
41435;DHT22;27177;22.262;114.192;2023-04-06T04:16:59;24.20;99.90
41435;DHT22;27177;22.262;114.192;2023-04-06T04:19:26;24.20;99.90
41435;DHT22;27177;22.262;114.192;2023-04-06T04:22:05;24.20;99.90
41435;DHT22;27177;22.262;114.192;2023-04-06T04:34:56;24.20;99.90
41435;DHT22;27177;22.262;114.192;2023-04-06T04:40:11;24.20;99.90
41435;DHT22;27177;22.262;114.192;2023-04-06T04:42:49;24.20;99.90
41435;DHT22;27177;22.262;114.192;2023-04-06T04:50:28;24.10;99.90
41435;DHT22;27177;22.262;114.192;2023-04-06T04:55:27;24.10;99.90
41435;DHT22;27177;22.262;114.192;2023-04-06T05:00:32;24.10;99.90
41435;DHT22;27177;22.262;114.192;2023-04-06T05:03:11;24.20;99.90
41435;DHT22;27177;22.262;114.192;2023-04-06T05:08:24;24.30;99.90
41435;DHT22;27177;22.262;114.192;2023-04-06T05:11:21;24.30;99.90
41435;DHT22;27177;22.262;114.192;2023-04-06T05:19:48;24.40;99.90
41435;DHT22;27177;22.262;114.192;2023-04-06T05:22:15;24.30;99.90
41435;DHT22;27177;22.262;114.192;2023-04-06T05:24:45;24.30;99.90
41435;DHT22;27177;22.262;114.192;2023-04-06T05:27:14;24.30;99.90
41435;DHT22;27177;22.262;114.192;2023-04-06T05:29:41;24.30;99.90
41435;DHT22;27177;22.262;114.192;2023-04-06T05:34:43;24.30;99.90
41435;DHT22;27177;22.262;114.192;2023-04-06T05:37:10;24.30;99.90
41435;DHT22;27177;22.262;114.192;2023-04-06T05:39:59;24.30;99.90
41435;DHT22;27177;22.262;114.192;2023-04-06T05:42:26;24.30;99.90
41435;DHT22;27177;22.262;114.192;2023-04-06T05:44:57;24.20;99.90
41435;DHT22;27177;22.262;114.192;2023-04-06T05:47:23;24.10;99.90
41435;DHT22;27177;22.262;114.192;2023-04-06T05:50:07;24.10;99.90
41435;DHT22;27177;22.262;114.192;2023-04-06T05:52:54;24.10;99.90
41435;DHT22;27177;22.262;114.192;2023-04-06T05:55:33;24.10;99.90
41435;DHT22;27177;22.262;114.192;2023-04-06T06:16:03;24.20;99.90
41435;DHT22;27177;22.262;114.192;2023-04-06T06:21:11;24.20;99.90
41435;DHT22;27177;22.262;114.192;2023-04-06T06:23:38;24.20;99.90
41435;DHT22;27177;22.262;114.192;2023-04-06T06:26:08;24.10;99.90
41435;DHT22;27177;22.262;114.192;2023-04-06T06:28:58;24.10;99.90
41435;DHT22;27177;22.262;114.192;2023-04-06T06:31:27;24.10;99.90
41435;DHT22;27177;22.262;114.192;2023-04-06T06:34:18;24.00;99.90
41435;DHT22;27177;22.262;114.192;2023-04-06T06:36:46;24.00;99.90
41435;DHT22;27177;22.262;114.192;2023-04-06T06:39:12;24.00;99.90
41435;DHT22;27177;22.262;114.192;2023-04-06T06:41:41;24.00;99.90
41435;DHT22;27177;22.262;114.192;2023-04-06T06:44:33;24.00;99.90
41435;DHT22;27177;22.262;114.192;2023-04-06T06:47:13;24.00;99.90
41435;DHT22;27177;22.262;114.192;2023-04-06T06:49:44;24.00;99.90
41435;DHT22;27177;22.262;114.192;2023-04-06T06:52:13;24.10;99.90
41435;DHT22;27177;22.262;114.192;2023-04-06T06:57:18;24.00;99.90
41435;DHT22;27177;22.262;114.192;2023-04-06T07:02:24;24.00;99.90
41435;DHT22;27177;22.262;114.192;2023-04-06T07:04:54;24.00;99.90
41435;DHT22;27177;22.262;114.192;2023-04-06T07:07:24;24.00;99.90
41435;DHT22;27177;22.262;114.192;2023-04-06T07:09:53;23.90;99.90
41435;DHT22;27177;22.262;114.192;2023-04-06T07:12:20;23.90;99.90
41435;DHT22;27177;22.262;114.192;2023-04-06T07:14:48;23.90;99.90
41435;DHT22;27177;22.262;114.192;2023-04-06T07:17:21;24.00;99.90
41435;DHT22;27177;22.262;114.192;2023-04-06T07:19:48;24.00;99.90
41435;DHT22;27177;22.262;114.192;2023-04-06T07:22:22;24.00;99.90
41435;DHT22;27177;22.262;114.192;2023-04-06T07:32:48;24.00;99.90
41435;DHT22;27177;22.262;114.192;2023-04-06T07:35:17;24.00;99.90
41435;DHT22;27177;22.262;114.192;2023-04-06T07:37:53;24.00;99.90
41435;DHT22;27177;22.262;114.192;2023-04-06T07:40:39;24.00;99.90
41435;DHT22;27177;22.262;114.192;2023-04-06T07:43:09;24.10;99.90
41435;DHT22;27177;22.262;114.192;2023-04-06T07:45:40;24.10;99.90
41435;DHT22;27177;22.262;114.192;2023-04-06T08:04:35;24.20;99.90
41435;DHT22;27177;22.262;114.192;2023-04-06T08:07:06;24.20;99.90
41435;DHT22;27177;22.262;114.192;2023-04-06T08:09:33;24.20;99.90
41435;DHT22;27177;22.262;114.192;2023-04-06T08:11:59;24.20;99.90
41435;DHT22;27177;22.262;114.192;2023-04-06T08:17:16;24.10;99.90
41435;DHT22;27177;22.262;114.192;2023-04-06T08:19:43;24.10;99.90
41435;DHT22;27177;22.262;114.192;2023-04-06T08:22:11;24.10;99.90
41435;DHT22;27177;22.262;114.192;2023-04-06T08:24:37;24.10;99.90
41435;DHT22;27177;22.262;114.192;2023-04-06T08:29:40;24.00;99.90
41435;DHT22;27177;22.262;114.192;2023-04-06T08:32:06;24.00;99.90
41435;DHT22;27177;22.262;114.192;2023-04-06T08:34:33;24.00;99.90
41435;DHT22;27177;22.262;114.192;2023-04-06T08:37:03;24.00;99.90
41435;DHT22;27177;22.262;114.192;2023-04-06T08:39:31;24.00;99.90
41435;DHT22;27177;22.262;114.192;2023-04-06T08:41:59;24.00;99.90
41435;DHT22;27177;22.262;114.192;2023-04-06T08:44:31;24.00;99.90
41435;DHT22;27177;22.262;114.192;2023-04-06T08:47:12;23.90;99.90
41435;DHT22;27177;22.262;114.192;2023-04-06T08:50:02;23.90;99.90
41435;DHT22;27177;22.262;114.192;2023-04-06T08:52:29;23.90;99.90
41435;DHT22;27177;22.262;114.192;2023-04-06T08:54:57;23.80;99.90
41435;DHT22;27177;22.262;114.192;2023-04-06T08:57:26;23.90;99.90
41435;DHT22;27177;22.262;114.192;2023-04-06T08:59:54;23.80;99.90
41435;DHT22;27177;22.262;114.192;2023-04-06T09:02:24;23.80;99.90
41435;DHT22;27177;22.262;114.192;2023-04-06T09:04:52;23.80;99.90
41435;DHT22;27177;22.262;114.192;2023-04-06T09:07:19;23.80;99.90
41435;DHT22;27177;22.262;114.192;2023-04-06T09:09:48;23.80;99.90
41435;DHT22;27177;22.262;114.192;2023-04-06T09:12:27;23.80;99.90
41435;DHT22;27177;22.262;114.192;2023-04-06T09:14:54;23.80;99.90
41435;DHT22;27177;22.262;114.192;2023-04-06T09:17:22;23.80;99.90
41435;DHT22;27177;22.262;114.192;2023-04-06T09:19:49;23.70;99.90
41435;DHT22;27177;22.262;114.192;2023-04-06T09:24:52;23.70;99.90
41435;DHT22;27177;22.262;114.192;2023-04-06T09:27:31;23.70;99.90
41435;DHT22;27177;22.262;114.192;2023-04-06T09:30:07;23.70;99.90
41435;DHT22;27177;22.262;114.192;2023-04-06T09:32:44;23.70;99.90
41435;DHT22;27177;22.262;114.192;2023-04-06T09:35:11;23.70;99.90
41435;DHT22;27177;22.262;114.192;2023-04-06T09:37:40;23.70;99.90
41435;DHT22;27177;22.262;114.192;2023-04-06T09:40:11;23.70;99.90
41435;DHT22;27177;22.262;114.192;2023-04-06T09:42:37;23.70;99.90
41435;DHT22;27177;22.262;114.192;2023-04-06T09:45:09;23.70;99.90
41435;DHT22;27177;22.262;114.192;2023-04-06T09:47:45;23.70;99.90
41435;DHT22;27177;22.262;114.192;2023-04-06T09:50:16;23.70;99.90
41435;DHT22;27177;22.262;114.192;2023-04-06T09:52:46;23.70;99.90
41435;DHT22;27177;22.262;114.192;2023-04-06T09:55:40;23.70;99.90
41435;DHT22;27177;22.262;114.192;2023-04-06T09:58:06;23.60;99.90
41435;DHT22;27177;22.262;114.192;2023-04-06T10:00:40;23.60;99.90
41435;DHT22;27177;22.262;114.192;2023-04-06T10:06:02;23.60;99.90
41435;DHT22;27177;22.262;114.192;2023-04-06T10:08:30;23.60;99.90
41435;DHT22;27177;22.262;114.192;2023-04-06T10:10:59;23.60;99.90
41435;DHT22;27177;22.262;114.192;2023-04-06T10:13:28;23.60;99.90
41435;DHT22;27177;22.262;114.192;2023-04-06T10:15:56;23.60;99.90
41435;DHT22;27177;22.262;114.192;2023-04-06T10:18:30;23.60;99.90
41435;DHT22;27177;22.262;114.192;2023-04-06T10:21:01;23.60;99.90
41435;DHT22;27177;22.262;114.192;2023-04-06T10:26:11;23.60;99.90
41435;DHT22;27177;22.262;114.192;2023-04-06T10:29:03;23.60;99.90
41435;DHT22;27177;22.262;114.192;2023-04-06T10:31:32;23.60;99.90
41435;DHT22;27177;22.262;114.192;2023-04-06T10:34:01;23.60;99.90
41435;DHT22;27177;22.262;114.192;2023-04-06T10:39:12;23.60;99.90
41435;DHT22;27177;22.262;114.192;2023-04-06T10:41:42;23.60;99.90
41435;DHT22;27177;22.262;114.192;2023-04-06T10:44:17;23.60;99.90
41435;DHT22;27177;22.262;114.192;2023-04-06T10:46:53;23.60;99.90
41435;DHT22;27177;22.262;114.192;2023-04-06T10:49:20;23.60;99.90
41435;DHT22;27177;22.262;114.192;2023-04-06T10:51:52;23.60;99.90
41435;DHT22;27177;22.262;114.192;2023-04-06T10:56:57;23.60;99.90
41435;DHT22;27177;22.262;114.192;2023-04-06T10:59:23;23.60;99.90
41435;DHT22;27177;22.262;114.192;2023-04-06T11:01:50;23.60;99.90
41435;DHT22;27177;22.262;114.192;2023-04-06T11:04:17;23.60;99.90
41435;DHT22;27177;22.262;114.192;2023-04-06T11:06:47;23.60;99.90
41435;DHT22;27177;22.262;114.192;2023-04-06T11:09:30;23.60;99.90
41435;DHT22;27177;22.262;114.192;2023-04-06T11:14:35;23.60;99.90
41435;DHT22;27177;22.262;114.192;2023-04-06T11:17:02;23.50;99.90
41435;DHT22;27177;22.262;114.192;2023-04-06T11:19:32;23.50;99.90
41435;DHT22;27177;22.262;114.192;2023-04-06T11:22:08;23.50;99.90
41435;DHT22;27177;22.262;114.192;2023-04-06T11:24:38;23.60;99.90
41435;DHT22;27177;22.262;114.192;2023-04-06T11:27:04;23.50;99.90
41435;DHT22;27177;22.262;114.192;2023-04-06T11:29:30;23.60;99.90
41435;DHT22;27177;22.262;114.192;2023-04-06T11:34:28;23.50;99.90
41435;DHT22;27177;22.262;114.192;2023-04-06T11:36:58;23.50;99.90
41435;DHT22;27177;22.262;114.192;2023-04-06T11:39:36;23.50;99.90
41435;DHT22;27177;22.262;114.192;2023-04-06T11:42:03;23.60;99.90
41435;DHT22;27177;22.262;114.192;2023-04-06T11:44:39;23.60;99.90
41435;DHT22;27177;22.262;114.192;2023-04-06T11:47:08;23.60;99.90
41435;DHT22;27177;22.262;114.192;2023-04-06T11:49:39;23.60;99.90
41435;DHT22;27177;22.262;114.192;2023-04-06T11:52:22;23.60;99.90
41435;DHT22;27177;22.262;114.192;2023-04-06T11:54:49;23.60;99.90
41435;DHT22;27177;22.262;114.192;2023-04-06T11:57:16;23.60;99.90
41435;DHT22;27177;22.262;114.192;2023-04-06T12:02:18;23.60;99.90
41435;DHT22;27177;22.262;114.192;2023-04-06T12:04:45;23.60;99.90
41435;DHT22;27177;22.262;114.192;2023-04-06T12:09:45;23.60;99.90
41435;DHT22;27177;22.262;114.192;2023-04-06T12:12:11;23.60;99.90
41435;DHT22;27177;22.262;114.192;2023-04-06T12:14:39;23.60;99.90
41435;DHT22;27177;22.262;114.192;2023-04-06T12:17:11;23.60;99.90
41435;DHT22;27177;22.262;114.192;2023-04-06T12:19:37;23.60;99.90
41435;DHT22;27177;22.262;114.192;2023-04-06T12:22:04;23.60;99.90
41435;DHT22;27177;22.262;114.192;2023-04-06T12:24:32;23.60;99.90
41435;DHT22;27177;22.262;114.192;2023-04-06T12:29:42;23.60;99.90
41435;DHT22;27177;22.262;114.192;2023-04-06T12:32:08;23.60;99.90
41435;DHT22;27177;22.262;114.192;2023-04-06T12:34:47;23.60;99.90
41435;DHT22;27177;22.262;114.192;2023-04-06T12:42:29;23.60;99.90
41435;DHT22;27177;22.262;114.192;2023-04-06T12:44:57;23.60;99.90
41435;DHT22;27177;22.262;114.192;2023-04-06T12:47:25;23.60;99.90
41435;DHT22;27177;22.262;114.192;2023-04-06T12:49:52;23.60;99.90
41435;DHT22;27177;22.262;114.192;2023-04-06T12:52:19;23.60;99.90
41435;DHT22;27177;22.262;114.192;2023-04-06T12:54:47;23.60;99.90
41435;DHT22;27177;22.262;114.192;2023-04-06T12:57:25;23.60;99.90
41435;DHT22;27177;22.262;114.192;2023-04-06T12:59:53;23.60;99.90
41435;DHT22;27177;22.262;114.192;2023-04-06T13:02:19;23.60;99.90
41435;DHT22;27177;22.262;114.192;2023-04-06T13:04:50;23.60;99.90
41435;DHT22;27177;22.262;114.192;2023-04-06T13:07:16;23.60;99.90
41435;DHT22;27177;22.262;114.192;2023-04-06T13:09:46;23.60;99.90
41435;DHT22;27177;22.262;114.192;2023-04-06T13:12:15;23.60;99.90
41435;DHT22;27177;22.262;114.192;2023-04-06T13:14:42;23.60;99.90
41435;DHT22;27177;22.262;114.192;2023-04-06T13:17:08;23.60;99.90
41435;DHT22;27177;22.262;114.192;2023-04-06T13:39:06;22.70;99.90
41435;DHT22;27177;22.262;114.192;2023-04-06T13:41:34;22.50;99.90
41435;DHT22;27177;22.262;114.192;2023-04-06T13:44:03;22.30;99.90
41435;DHT22;27177;22.262;114.192;2023-04-06T13:46:30;22.10;99.90
41435;DHT22;27177;22.262;114.192;2023-04-06T13:48:57;22.00;99.90
41435;DHT22;27177;22.262;114.192;2023-04-06T13:51:26;21.90;99.90
41435;DHT22;27177;22.262;114.192;2023-04-06T13:53:52;21.80;99.90
41435;DHT22;27177;22.262;114.192;2023-04-06T13:56:21;21.80;99.90
41435;DHT22;27177;22.262;114.192;2023-04-06T13:58:47;21.80;99.90
41435;DHT22;27177;22.262;114.192;2023-04-06T14:01:15;21.70;99.90
41435;DHT22;27177;22.262;114.192;2023-04-06T14:06:16;21.70;99.90
41435;DHT22;27177;22.262;114.192;2023-04-06T14:11:32;21.70;99.90
41435;DHT22;27177;22.262;114.192;2023-04-06T14:13:58;21.60;99.90
41435;DHT22;27177;22.262;114.192;2023-04-06T14:16:25;21.50;99.90
41435;DHT22;27177;22.262;114.192;2023-04-06T14:18:51;21.50;99.90
41435;DHT22;27177;22.262;114.192;2023-04-06T14:21:18;21.50;99.90
41435;DHT22;27177;22.262;114.192;2023-04-06T14:23:45;21.50;99.90
41435;DHT22;27177;22.262;114.192;2023-04-06T14:26:12;21.40;99.90
41435;DHT22;27177;22.262;114.192;2023-04-06T14:28:38;21.30;99.90
41435;DHT22;27177;22.262;114.192;2023-04-06T14:31:11;21.30;99.90
41435;DHT22;27177;22.262;114.192;2023-04-06T14:33:38;21.30;99.90
41435;DHT22;27177;22.262;114.192;2023-04-06T14:36:05;21.30;99.90
41435;DHT22;27177;22.262;114.192;2023-04-06T14:43:41;21.10;99.90
41435;DHT22;27177;22.262;114.192;2023-04-06T14:46:07;21.10;99.90
41435;DHT22;27177;22.262;114.192;2023-04-06T14:51:09;21.00;99.90
41435;DHT22;27177;22.262;114.192;2023-04-06T14:53:45;21.00;99.90
41435;DHT22;27177;22.262;114.192;2023-04-06T14:56:19;20.90;99.90
41435;DHT22;27177;22.262;114.192;2023-04-06T14:58:46;20.90;99.90
41435;DHT22;27177;22.262;114.192;2023-04-06T15:01:13;20.80;99.90
41435;DHT22;27177;22.262;114.192;2023-04-06T15:03:39;20.80;99.90
41435;DHT22;27177;22.262;114.192;2023-04-06T15:06:05;20.80;99.90
41435;DHT22;27177;22.262;114.192;2023-04-06T15:08:32;20.70;99.90
41435;DHT22;27177;22.262;114.192;2023-04-06T15:10:59;20.70;99.90
41435;DHT22;27177;22.262;114.192;2023-04-06T15:13:26;20.70;99.90
41435;DHT22;27177;22.262;114.192;2023-04-06T15:15:54;20.70;99.90
41435;DHT22;27177;22.262;114.192;2023-04-06T15:18:21;20.60;99.90
41435;DHT22;27177;22.262;114.192;2023-04-06T15:20:48;20.60;99.90
41435;DHT22;27177;22.262;114.192;2023-04-06T15:23:15;20.50;99.90
41435;DHT22;27177;22.262;114.192;2023-04-06T15:25:41;20.50;99.90
41435;DHT22;27177;22.262;114.192;2023-04-06T15:28:07;20.40;99.90
41435;DHT22;27177;22.262;114.192;2023-04-06T15:30:35;20.40;99.90
41435;DHT22;27177;22.262;114.192;2023-04-06T15:33:02;20.40;99.90
41435;DHT22;27177;22.262;114.192;2023-04-06T15:35:29;20.30;99.90
41435;DHT22;27177;22.262;114.192;2023-04-06T15:37:56;20.30;99.90
41435;DHT22;27177;22.262;114.192;2023-04-06T15:40:29;20.30;99.90
41435;DHT22;27177;22.262;114.192;2023-04-06T15:42:55;20.30;99.90
41435;DHT22;27177;22.262;114.192;2023-04-06T15:45:22;20.30;99.90
41435;DHT22;27177;22.262;114.192;2023-04-06T15:47:48;20.30;99.90
41435;DHT22;27177;22.262;114.192;2023-04-06T15:50:14;20.30;99.90
41435;DHT22;27177;22.262;114.192;2023-04-06T15:52:43;20.30;99.90
41435;DHT22;27177;22.262;114.192;2023-04-06T15:55:09;20.20;99.90
41435;DHT22;27177;22.262;114.192;2023-04-06T16:02:46;20.10;99.90
41435;DHT22;27177;22.262;114.192;2023-04-06T16:05:13;20.10;99.90
41435;DHT22;27177;22.262;114.192;2023-04-06T16:15:25;19.90;99.90
41435;DHT22;27177;22.262;114.192;2023-04-06T16:17:51;19.90;99.90
41435;DHT22;27177;22.262;114.192;2023-04-06T16:20:20;19.90;99.90
41435;DHT22;27177;22.262;114.192;2023-04-06T16:25:21;19.80;99.90
41435;DHT22;27177;22.262;114.192;2023-04-06T16:27:48;19.80;99.90
41435;DHT22;27177;22.262;114.192;2023-04-06T16:30:14;19.80;99.90
41435;DHT22;27177;22.262;114.192;2023-04-06T16:32:40;19.80;99.90
41435;DHT22;27177;22.262;114.192;2023-04-06T16:35:08;19.80;99.90
41435;DHT22;27177;22.262;114.192;2023-04-06T16:37:34;19.80;99.90
41435;DHT22;27177;22.262;114.192;2023-04-06T16:40:00;19.80;99.90
41435;DHT22;27177;22.262;114.192;2023-04-06T16:42:30;19.70;99.90
41435;DHT22;27177;22.262;114.192;2023-04-06T16:44:59;19.70;99.90
41435;DHT22;27177;22.262;114.192;2023-04-06T16:47:26;19.70;99.90
41435;DHT22;27177;22.262;114.192;2023-04-06T16:49:55;19.70;99.90
41435;DHT22;27177;22.262;114.192;2023-04-06T16:52:23;19.60;99.90
41435;DHT22;27177;22.262;114.192;2023-04-06T16:54:53;19.60;99.90
41435;DHT22;27177;22.262;114.192;2023-04-06T16:57:25;19.70;99.90
41435;DHT22;27177;22.262;114.192;2023-04-06T16:59:54;19.70;99.90
41435;DHT22;27177;22.262;114.192;2023-04-06T17:02:22;19.60;99.90
41435;DHT22;27177;22.262;114.192;2023-04-06T17:04:48;19.60;99.90
41435;DHT22;27177;22.262;114.192;2023-04-06T17:07:15;19.60;99.90
41435;DHT22;27177;22.262;114.192;2023-04-06T17:09:41;19.50;99.90
41435;DHT22;27177;22.262;114.192;2023-04-06T17:12:10;19.40;99.90
41435;DHT22;27177;22.262;114.192;2023-04-06T17:14:38;19.40;99.90
41435;DHT22;27177;22.262;114.192;2023-04-06T17:17:04;19.50;99.90
41435;DHT22;27177;22.262;114.192;2023-04-06T17:19:31;19.40;99.90
41435;DHT22;27177;22.262;114.192;2023-04-06T17:21:57;19.40;99.90
41435;DHT22;27177;22.262;114.192;2023-04-06T17:24:23;19.40;99.90
41435;DHT22;27177;22.262;114.192;2023-04-06T17:26:50;19.40;99.90
41435;DHT22;27177;22.262;114.192;2023-04-06T17:29:16;19.40;99.90
41435;DHT22;27177;22.262;114.192;2023-04-06T17:31:43;19.40;99.90
41435;DHT22;27177;22.262;114.192;2023-04-06T17:34:10;19.40;99.90
41435;DHT22;27177;22.262;114.192;2023-04-06T17:36:36;19.40;99.90
41435;DHT22;27177;22.262;114.192;2023-04-06T17:39:03;19.40;99.90
41435;DHT22;27177;22.262;114.192;2023-04-06T17:41:29;19.40;99.90
41435;DHT22;27177;22.262;114.192;2023-04-06T17:43:57;19.40;99.90
41435;DHT22;27177;22.262;114.192;2023-04-06T17:46:23;19.40;99.90
41435;DHT22;27177;22.262;114.192;2023-04-06T17:48:50;19.50;99.90
41435;DHT22;27177;22.262;114.192;2023-04-06T17:51:17;19.50;99.90
41435;DHT22;27177;22.262;114.192;2023-04-06T17:53:45;19.60;99.90
41435;DHT22;27177;22.262;114.192;2023-04-06T17:56:11;19.50;99.90
41435;DHT22;27177;22.262;114.192;2023-04-06T17:58:39;19.60;99.90
41435;DHT22;27177;22.262;114.192;2023-04-06T18:01:05;19.60;99.90
41435;DHT22;27177;22.262;114.192;2023-04-06T18:03:36;19.60;99.90
41435;DHT22;27177;22.262;114.192;2023-04-06T18:08:38;19.60;99.90
41435;DHT22;27177;22.262;114.192;2023-04-06T18:11:05;19.60;99.90
41435;DHT22;27177;22.262;114.192;2023-04-06T18:13:32;19.60;99.90
41435;DHT22;27177;22.262;114.192;2023-04-06T18:16:01;19.60;99.90
41435;DHT22;27177;22.262;114.192;2023-04-06T18:18:27;19.60;99.90
41435;DHT22;27177;22.262;114.192;2023-04-06T18:20:54;19.70;99.90
41435;DHT22;27177;22.262;114.192;2023-04-06T18:23:22;19.70;99.90
41435;DHT22;27177;22.262;114.192;2023-04-06T18:25:48;19.70;99.90
41435;DHT22;27177;22.262;114.192;2023-04-06T18:28:15;19.70;99.90
41435;DHT22;27177;22.262;114.192;2023-04-06T18:30:42;19.70;99.90
41435;DHT22;27177;22.262;114.192;2023-04-06T18:33:08;19.70;99.90
41435;DHT22;27177;22.262;114.192;2023-04-06T18:35:35;19.80;99.90
41435;DHT22;27177;22.262;114.192;2023-04-06T18:38:02;19.80;99.90
41435;DHT22;27177;22.262;114.192;2023-04-06T18:40:33;19.80;99.90
41435;DHT22;27177;22.262;114.192;2023-04-06T18:42:59;19.80;99.90
41435;DHT22;27177;22.262;114.192;2023-04-06T18:45:26;19.80;99.90
41435;DHT22;27177;22.262;114.192;2023-04-06T18:47:53;19.80;99.90
41435;DHT22;27177;22.262;114.192;2023-04-06T18:50:23;19.80;99.90
41435;DHT22;27177;22.262;114.192;2023-04-06T18:52:50;19.80;99.90
41435;DHT22;27177;22.262;114.192;2023-04-06T18:55:18;19.80;99.90
41435;DHT22;27177;22.262;114.192;2023-04-06T18:57:47;19.80;99.90
41435;DHT22;27177;22.262;114.192;2023-04-06T19:00:14;19.80;99.90
41435;DHT22;27177;22.262;114.192;2023-04-06T19:02:43;19.80;99.90
41435;DHT22;27177;22.262;114.192;2023-04-06T19:05:10;19.80;99.90
41435;DHT22;27177;22.262;114.192;2023-04-06T19:07:39;19.80;99.90
41435;DHT22;27177;22.262;114.192;2023-04-06T19:10:07;19.80;99.90
41435;DHT22;27177;22.262;114.192;2023-04-06T19:12:35;19.70;99.90
41435;DHT22;27177;22.262;114.192;2023-04-06T19:15:07;19.70;99.90
41435;DHT22;27177;22.262;114.192;2023-04-06T19:17:33;19.70;99.90
41435;DHT22;27177;22.262;114.192;2023-04-06T19:20:00;19.60;99.90